Forside
METAR-TAF:

METAR-TAF

Lufthavne :

Osaka, Japan

Breddekreds: 34-47N, længdekreds: 135-27E, højde: 12 m

Aktuelle vejr

Denne rapport blev lavet for 8 timer og 21 minutter siden, kl. 11:00 UTC
Vind 4 kt fra nordvest, varierende mellem vestnordvest og nord
Temperatur 7°C
Fugtighed 66%
Tryk 1028 hPa
Sigt 10 km eller mere
Nogle få skyer i en højde af 3000 ft
Spredte skyer

METAR: RJOO 151100Z 32004KT 290V360 9999 FEW030 SCT/// 07/01 Q1028 RMK 1CU030 A3037

Tid: 04:21 (19:21 UTC)

Vejrudsigter

Denne rapport blev lavet for 2 timer og 14 minutter siden, kl. 17:07 UTC
Foreløbig gælder fra 15 på 18 UTC til 17 på 00 UTC
Vind 5 kt fra nordvest
Sigt 10 km eller mere
ingen skyer under 1500m og ingen cumulonimbus
ændring
fra 15 på 23 UTC til 16 på 01 UTC
Vind 4 kt fra syd
ændring
fra 16 på 12 UTC til 16 på 15 UTC
Vind 5 kt fra nordvest

TAF: RJOO 151707Z 1518/1700 32005KT CAVOK BECMG 1523/1601 18004KT BECMG 1612/1615 32005KT

Vejrobservationer og prognoser fra mere end 4000 lufthavne (METAR og TAF).

De gule og røde prikker repræsenterer de meteorologiske stationer.

Flyt musen over at se navnet på stationen.

Så klik over at se vejr observationer og prognoser.

At skifte det kort: Klik på de grønne knapper med et sort kors for at zoome ind; på den grønne knap med en bindestreg for at zoome ud; eller på de grønne pile for tilstødende kort.


METAR-TAF: